Terminal Aerodrome Forecast
Issued by NWS

Home | Current Version | Previous Version | Text Only | Print | Product List | Glossary Off
Versions: 1 2 3 4 5 6 7 8 9 10 11 12 13 14 15 16 17 18 19 20 21 22 23 24 25 26 27 28

000
FTUS43 KABR 030807 AAC
TAFMBG
TAF AMD
KMBG 030807Z 0308/0406 VRB04KT 2SM BR SKC
      TEMPO 0308/0310 1SM BR
     FM031000 VRB03KT 2SM BR BKN050
     FM031500 VRB05KT P6SM SKC=

USA.gov is the U.S. government's official web portal to all federal, state and local government web resources and services.